McAllister, Montana
Current Conditions -  °F | °C
As of 11:56 AM on Thursday 30 Oct 2014 (Local Time) from KBZN Reporting Station
Overcast Overcast  
Wind Chill:   Ceiling: 10000
Heat Index:   Visibility: 10mi
Dew Point: -1°   Wind: 0mph
Humidity: 56%   Direction: NA
Pressure: 30.29"   Gusts: NA
Location:  45.44°N, 111.73°W
Report Text: KBZN 301756Z 00000KT 10SM OVC100 08/M01 A3029 RMK AO2 SLP276 T00781006 10078 20006 58003
Loading
Personal Weather Stations






























Interactive Weather Map
Tropical Storm Tracking
New forecast layout! Learn more

10-Day Weather Forecast

Advertisements
Track Severe Weather on mobile